sensor_id;sensor_type;location;lat;lon;timestamp;P1;durP1;ratioP1;P2;durP2;ratioP2
70927;SDS011;58587;53.034;18.576;2023-07-31T00:00:28;3.30;;;2.50;;
70927;SDS011;58587;53.034;18.576;2023-07-31T00:02:54;3.00;;;2.60;;
70927;SDS011;58587;53.034;18.576;2023-07-31T00:05:19;5.85;;;3.10;;
70927;SDS011;58587;53.034;18.576;2023-07-31T00:07:45;4.57;;;2.80;;
70927;SDS011;58587;53.034;18.576;2023-07-31T00:10:10;4.43;;;2.70;;
70927;SDS011;58587;53.034;18.576;2023-07-31T00:12:35;3.03;;;2.70;;
70927;SDS011;58587;53.034;18.576;2023-07-31T00:15:01;4.95;;;3.13;;
70927;SDS011;58587;53.034;18.576;2023-07-31T00:17:27;3.97;;;3.50;;
70927;SDS011;58587;53.034;18.576;2023-07-31T00:19:53;5.60;;;3.03;;
70927;SDS011;58587;53.034;18.576;2023-07-31T00:22:18;4.30;;;3.00;;
70927;SDS011;58587;53.034;18.576;2023-07-31T00:24:43;3.30;;;2.80;;
70927;SDS011;58587;53.034;18.576;2023-07-31T00:27:09;5.93;;;3.23;;
70927;SDS011;58587;53.034;18.576;2023-07-31T00:29:34;6.73;;;3.30;;
70927;SDS011;58587;53.034;18.576;2023-07-31T00:31:59;5.77;;;3.33;;
70927;SDS011;58587;53.034;18.576;2023-07-31T00:34:24;4.60;;;3.33;;
70927;SDS011;58587;53.034;18.576;2023-07-31T00:36:50;6.27;;;3.33;;
70927;SDS011;58587;53.034;18.576;2023-07-31T00:39:15;4.93;;;3.20;;
70927;SDS011;58587;53.034;18.576;2023-07-31T00:41:40;5.35;;;3.20;;
70927;SDS011;58587;53.034;18.576;2023-07-31T00:44:06;4.10;;;3.10;;
70927;SDS011;58587;53.034;18.576;2023-07-31T00:46:31;4.37;;;3.23;;
70927;SDS011;58587;53.034;18.576;2023-07-31T00:48:56;5.30;;;2.90;;
70927;SDS011;58587;53.034;18.576;2023-07-31T00:51:22;4.07;;;2.93;;
70927;SDS011;58587;53.034;18.576;2023-07-31T00:53:47;4.80;;;3.00;;
70927;SDS011;58587;53.034;18.576;2023-07-31T00:56:13;4.87;;;3.17;;
70927;SDS011;58587;53.034;18.576;2023-07-31T00:58:38;4.30;;;2.90;;
70927;SDS011;58587;53.034;18.576;2023-07-31T01:01:05;3.20;;;2.70;;
70927;SDS011;58587;53.034;18.576;2023-07-31T01:03:30;4.00;;;3.10;;
70927;SDS011;58587;53.034;18.576;2023-07-31T01:06:04;3.73;;;2.90;;
70927;SDS011;58587;53.034;18.576;2023-07-31T01:11:48;4.70;;;2.45;;
70927;SDS011;58587;53.034;18.576;2023-07-31T01:14:18;5.70;;;2.65;;
70927;SDS011;58587;53.034;18.576;2023-07-31T01:16:43;3.47;;;2.23;;
70927;SDS011;58587;53.034;18.576;2023-07-31T01:19:08;6.03;;;2.53;;
70927;SDS011;58587;53.034;18.576;2023-07-31T01:26:47;2.78;;;2.22;;
70927;SDS011;58587;53.034;18.576;2023-07-31T01:32:19;4.38;;;2.40;;
70927;SDS011;58587;53.034;18.576;2023-07-31T01:34:44;4.67;;;2.90;;
70927;SDS011;58587;53.034;18.576;2023-07-31T01:37:11;6.25;;;2.40;;
70927;SDS011;58587;53.034;18.576;2023-07-31T01:39:36;3.40;;;2.33;;
70927;SDS011;58587;53.034;18.576;2023-07-31T01:42:02;5.13;;;2.20;;
70927;SDS011;58587;53.034;18.576;2023-07-31T01:44:27;6.20;;;2.40;;
70927;SDS011;58587;53.034;18.576;2023-07-31T01:46:53;3.53;;;2.40;;
70927;SDS011;58587;53.034;18.576;2023-07-31T01:49:18;3.10;;;2.17;;
70927;SDS011;58587;53.034;18.576;2023-07-31T01:51:43;9.07;;;2.70;;
70927;SDS011;58587;53.034;18.576;2023-07-31T01:54:09;4.57;;;2.33;;
70927;SDS011;58587;53.034;18.576;2023-07-31T01:56:34;3.25;;;2.08;;
70927;SDS011;58587;53.034;18.576;2023-07-31T01:58:59;6.43;;;2.47;;
70927;SDS011;58587;53.034;18.576;2023-07-31T02:01:25;3.50;;;2.20;;
70927;SDS011;58587;53.034;18.576;2023-07-31T02:03:50;5.70;;;2.20;;
70927;SDS011;58587;53.034;18.576;2023-07-31T02:06:15;3.97;;;2.53;;
70927;SDS011;58587;53.034;18.576;2023-07-31T02:08:41;4.57;;;2.37;;
70927;SDS011;58587;53.034;18.576;2023-07-31T02:11:06;3.53;;;2.90;;
70927;SDS011;58587;53.034;18.576;2023-07-31T02:13:31;4.93;;;2.40;;
70927;SDS011;58587;53.034;18.576;2023-07-31T02:15:57;3.10;;;2.70;;
70927;SDS011;58587;53.034;18.576;2023-07-31T02:18:22;5.63;;;2.40;;
70927;SDS011;58587;53.034;18.576;2023-07-31T02:20:51;3.67;;;2.20;;
70927;SDS011;58587;53.034;18.576;2023-07-31T02:23:20;6.07;;;2.22;;
70927;SDS011;58587;53.034;18.576;2023-07-31T02:25:47;5.97;;;2.60;;
70927;SDS011;58587;53.034;18.576;2023-07-31T02:28:13;3.83;;;2.67;;
70927;SDS011;58587;53.034;18.576;2023-07-31T02:30:38;4.07;;;2.33;;
70927;SDS011;58587;53.034;18.576;2023-07-31T02:33:04;3.80;;;2.40;;
70927;SDS011;58587;53.034;18.576;2023-07-31T02:35:30;3.45;;;2.55;;
70927;SDS011;58587;53.034;18.576;2023-07-31T02:37:55;4.10;;;2.00;;
70927;SDS011;58587;53.034;18.576;2023-07-31T02:40:21;4.87;;;2.40;;
70927;SDS011;58587;53.034;18.576;2023-07-31T02:42:46;3.90;;;2.50;;
70927;SDS011;58587;53.034;18.576;2023-07-31T02:45:11;3.47;;;2.20;;
70927;SDS011;58587;53.034;18.576;2023-07-31T02:47:37;5.90;;;2.70;;
70927;SDS011;58587;53.034;18.576;2023-07-31T02:50:02;3.33;;;2.37;;
70927;SDS011;58587;53.034;18.576;2023-07-31T02:52:28;3.72;;;2.60;;
70927;SDS011;58587;53.034;18.576;2023-07-31T02:54:54;4.23;;;2.57;;
70927;SDS011;58587;53.034;18.576;2023-07-31T02:57:19;4.47;;;2.70;;
70927;SDS011;58587;53.034;18.576;2023-07-31T02:59:45;5.33;;;2.60;;
70927;SDS011;58587;53.034;18.576;2023-07-31T03:02:10;4.10;;;2.22;;
70927;SDS011;58587;53.034;18.576;2023-07-31T03:04:36;4.50;;;2.63;;
70927;SDS011;58587;53.034;18.576;2023-07-31T03:07:01;5.73;;;2.60;;
70927;SDS011;58587;53.034;18.576;2023-07-31T03:09:27;4.93;;;2.47;;
70927;SDS011;58587;53.034;18.576;2023-07-31T03:11:52;5.23;;;2.60;;
70927;SDS011;58587;53.034;18.576;2023-07-31T03:14:17;3.47;;;2.70;;
70927;SDS011;58587;53.034;18.576;2023-07-31T03:16:43;3.00;;;2.60;;
70927;SDS011;58587;53.034;18.576;2023-07-31T03:19:08;4.17;;;2.70;;
70927;SDS011;58587;53.034;18.576;2023-07-31T03:21:33;4.73;;;2.27;;
70927;SDS011;58587;53.034;18.576;2023-07-31T03:23:58;4.73;;;2.63;;
70927;SDS011;58587;53.034;18.576;2023-07-31T03:26:24;4.37;;;2.47;;
70927;SDS011;58587;53.034;18.576;2023-07-31T03:28:49;6.30;;;2.70;;
70927;SDS011;58587;53.034;18.576;2023-07-31T03:31:14;3.90;;;2.50;;
70927;SDS011;58587;53.034;18.576;2023-07-31T03:33:40;3.77;;;2.70;;
70927;SDS011;58587;53.034;18.576;2023-07-31T03:36:05;5.63;;;2.80;;
70927;SDS011;58587;53.034;18.576;2023-07-31T03:38:31;6.80;;;2.90;;
70927;SDS011;58587;53.034;18.576;2023-07-31T03:40:56;6.57;;;2.80;;
70927;SDS011;58587;53.034;18.576;2023-07-31T03:43:23;4.93;;;2.67;;
70927;SDS011;58587;53.034;18.576;2023-07-31T03:45:49;6.72;;;2.80;;
70927;SDS011;58587;53.034;18.576;2023-07-31T03:48:15;3.83;;;2.63;;
70927;SDS011;58587;53.034;18.576;2023-07-31T03:50:41;5.38;;;2.80;;
70927;SDS011;58587;53.034;18.576;2023-07-31T03:53:06;7.43;;;2.90;;
70927;SDS011;58587;53.034;18.576;2023-07-31T03:55:31;5.50;;;2.67;;
70927;SDS011;58587;53.034;18.576;2023-07-31T03:57:57;7.17;;;2.93;;
70927;SDS011;58587;53.034;18.576;2023-07-31T04:00:22;4.35;;;2.60;;
70927;SDS011;58587;53.034;18.576;2023-07-31T04:02:48;3.67;;;2.70;;
70927;SDS011;58587;53.034;18.576;2023-07-31T04:05:13;5.27;;;2.70;;
70927;SDS011;58587;53.034;18.576;2023-07-31T04:07:38;4.17;;;2.57;;
70927;SDS011;58587;53.034;18.576;2023-07-31T04:10:04;3.67;;;2.70;;
70927;SDS011;58587;53.034;18.576;2023-07-31T04:12:29;3.87;;;2.57;;
70927;SDS011;58587;53.034;18.576;2023-07-31T04:14:54;6.47;;;2.73;;
70927;SDS011;58587;53.034;18.576;2023-07-31T04:17:20;6.10;;;2.57;;
70927;SDS011;58587;53.034;18.576;2023-07-31T04:19:45;6.50;;;2.53;;
70927;SDS011;58587;53.034;18.576;2023-07-31T04:22:10;5.57;;;2.70;;
70927;SDS011;58587;53.034;18.576;2023-07-31T04:24:36;3.67;;;2.47;;
70927;SDS011;58587;53.034;18.576;2023-07-31T04:27:01;4.10;;;2.47;;
70927;SDS011;58587;53.034;18.576;2023-07-31T04:29:27;3.67;;;2.50;;
70927;SDS011;58587;53.034;18.576;2023-07-31T04:31:52;6.07;;;2.33;;
70927;SDS011;58587;53.034;18.576;2023-07-31T04:34:17;3.97;;;2.40;;
70927;SDS011;58587;53.034;18.576;2023-07-31T04:36:42;4.20;;;2.30;;
70927;SDS011;58587;53.034;18.576;2023-07-31T04:39:08;3.83;;;2.50;;
70927;SDS011;58587;53.034;18.576;2023-07-31T04:41:33;4.13;;;2.27;;
70927;SDS011;58587;53.034;18.576;2023-07-31T04:43:58;4.43;;;2.73;;
70927;SDS011;58587;53.034;18.576;2023-07-31T04:46:24;5.63;;;2.63;;
70927;SDS011;58587;53.034;18.576;2023-07-31T04:48:49;5.37;;;2.80;;
70927;SDS011;58587;53.034;18.576;2023-07-31T04:51:15;6.07;;;2.13;;
70927;SDS011;58587;53.034;18.576;2023-07-31T04:53:40;7.50;;;2.90;;
70927;SDS011;58587;53.034;18.576;2023-07-31T04:56:05;5.43;;;2.40;;
70927;SDS011;58587;53.034;18.576;2023-07-31T04:58:31;8.20;;;2.70;;
70927;SDS011;58587;53.034;18.576;2023-07-31T05:00:56;3.40;;;2.30;;
70927;SDS011;58587;53.034;18.576;2023-07-31T05:03:21;5.90;;;2.20;;
70927;SDS011;58587;53.034;18.576;2023-07-31T05:05:47;3.30;;;2.17;;
70927;SDS011;58587;53.034;18.576;2023-07-31T05:08:12;7.23;;;2.20;;
70927;SDS011;58587;53.034;18.576;2023-07-31T05:10:37;2.70;;;1.90;;
70927;SDS011;58587;53.034;18.576;2023-07-31T05:13:03;5.90;;;2.30;;
70927;SDS011;58587;53.034;18.576;2023-07-31T05:15:28;4.57;;;2.07;;
70927;SDS011;58587;53.034;18.576;2023-07-31T05:17:54;5.05;;;2.40;;
70927;SDS011;58587;53.034;18.576;2023-07-31T05:20:19;5.33;;;2.30;;
70927;SDS011;58587;53.034;18.576;2023-07-31T05:22:45;3.27;;;2.17;;
70927;SDS011;58587;53.034;18.576;2023-07-31T05:25:10;5.68;;;2.22;;
70927;SDS011;58587;53.034;18.576;2023-07-31T05:27:36;5.83;;;2.43;;
70927;SDS011;58587;53.034;18.576;2023-07-31T05:30:01;5.67;;;2.70;;
70927;SDS011;58587;53.034;18.576;2023-07-31T05:32:27;6.37;;;2.73;;
70927;SDS011;58587;53.034;18.576;2023-07-31T05:34:52;5.43;;;2.50;;
70927;SDS011;58587;53.034;18.576;2023-07-31T05:37:18;4.97;;;2.40;;
70927;SDS011;58587;53.034;18.576;2023-07-31T05:39:44;3.95;;;2.30;;
70927;SDS011;58587;53.034;18.576;2023-07-31T05:42:09;5.77;;;2.20;;
70927;SDS011;58587;53.034;18.576;2023-07-31T05:44:34;4.50;;;2.40;;
70927;SDS011;58587;53.034;18.576;2023-07-31T05:47:00;5.23;;;2.47;;
70927;SDS011;58587;53.034;18.576;2023-07-31T05:49:25;5.10;;;2.20;;
70927;SDS011;58587;53.034;18.576;2023-07-31T05:51:50;6.07;;;2.13;;
70927;SDS011;58587;53.034;18.576;2023-07-31T05:54:16;5.55;;;1.98;;
70927;SDS011;58587;53.034;18.576;2023-07-31T05:56:41;4.13;;;2.20;;
70927;SDS011;58587;53.034;18.576;2023-07-31T05:59:08;3.83;;;2.30;;
70927;SDS011;58587;53.034;18.576;2023-07-31T06:01:34;2.85;;;2.15;;
70927;SDS011;58587;53.034;18.576;2023-07-31T06:04:00;4.70;;;2.20;;
70927;SDS011;58587;53.034;18.576;2023-07-31T06:06:25;3.93;;;2.20;;
70927;SDS011;58587;53.034;18.576;2023-07-31T06:08:50;3.10;;;2.07;;
70927;SDS011;58587;53.034;18.576;2023-07-31T06:11:16;5.30;;;2.10;;
70927;SDS011;58587;53.034;18.576;2023-07-31T06:13:41;5.20;;;2.20;;
70927;SDS011;58587;53.034;18.576;2023-07-31T06:16:06;4.17;;;2.33;;
70927;SDS011;58587;53.034;18.576;2023-07-31T06:18:32;3.93;;;2.10;;
70927;SDS011;58587;53.034;18.576;2023-07-31T06:20:57;4.45;;;2.20;;
70927;SDS011;58587;53.034;18.576;2023-07-31T06:23:23;3.20;;;2.20;;
70927;SDS011;58587;53.034;18.576;2023-07-31T06:25:48;5.67;;;2.20;;
70927;SDS011;58587;53.034;18.576;2023-07-31T06:28:13;5.03;;;2.07;;
70927;SDS011;58587;53.034;18.576;2023-07-31T06:30:39;4.85;;;1.92;;
70927;SDS011;58587;53.034;18.576;2023-07-31T06:33:04;5.27;;;2.20;;
70927;SDS011;58587;53.034;18.576;2023-07-31T06:35:29;4.87;;;1.90;;
70927;SDS011;58587;53.034;18.576;2023-07-31T06:37:55;4.47;;;2.07;;
70927;SDS011;58587;53.034;18.576;2023-07-31T06:40:20;3.50;;;2.00;;
70927;SDS011;58587;53.034;18.576;2023-07-31T06:42:47;5.63;;;2.10;;
70927;SDS011;58587;53.034;18.576;2023-07-31T06:45:12;4.97;;;2.10;;
70927;SDS011;58587;53.034;18.576;2023-07-31T06:47:37;4.30;;;1.90;;
70927;SDS011;58587;53.034;18.576;2023-07-31T06:50:03;3.23;;;1.87;;
70927;SDS011;58587;53.034;18.576;2023-07-31T06:52:28;3.97;;;2.30;;
70927;SDS011;58587;53.034;18.576;2023-07-31T06:55:04;3.83;;;2.40;;
70927;SDS011;58587;53.034;18.576;2023-07-31T06:57:43;5.93;;;2.22;;
70927;SDS011;58587;53.034;18.576;2023-07-31T07:00:09;4.57;;;2.30;;
70927;SDS011;58587;53.034;18.576;2023-07-31T07:02:35;3.00;;;2.00;;
70927;SDS011;58587;53.034;18.576;2023-07-31T07:05:00;5.23;;;2.20;;
70927;SDS011;58587;53.034;18.576;2023-07-31T07:07:26;5.27;;;2.27;;
70927;SDS011;58587;53.034;18.576;2023-07-31T07:09:51;10.20;;;2.30;;
70927;SDS011;58587;53.034;18.576;2023-07-31T07:12:16;5.37;;;2.10;;
70927;SDS011;58587;53.034;18.576;2023-07-31T07:14:42;3.97;;;1.80;;
70927;SDS011;58587;53.034;18.576;2023-07-31T07:17:07;4.13;;;2.10;;
70927;SDS011;58587;53.034;18.576;2023-07-31T07:19:32;6.30;;;2.43;;
70927;SDS011;58587;53.034;18.576;2023-07-31T07:21:58;3.43;;;1.90;;
70927;SDS011;58587;53.034;18.576;2023-07-31T07:24:26;6.25;;;2.22;;
70927;SDS011;58587;53.034;18.576;2023-07-31T07:26:51;3.40;;;1.80;;
70927;SDS011;58587;53.034;18.576;2023-07-31T07:29:16;4.57;;;1.87;;
70927;SDS011;58587;53.034;18.576;2023-07-31T07:31:42;4.17;;;1.63;;
70927;SDS011;58587;53.034;18.576;2023-07-31T07:34:07;5.47;;;1.40;;
70927;SDS011;58587;53.034;18.576;2023-07-31T07:36:32;3.17;;;1.63;;
70927;SDS011;58587;53.034;18.576;2023-07-31T07:38:58;2.47;;;1.55;;
70927;SDS011;58587;53.034;18.576;2023-07-31T07:41:23;3.17;;;1.30;;
70927;SDS011;58587;53.034;18.576;2023-07-31T07:43:48;6.50;;;2.03;;
70927;SDS011;58587;53.034;18.576;2023-07-31T07:46:14;2.77;;;1.30;;
70927;SDS011;58587;53.034;18.576;2023-07-31T07:48:39;4.47;;;1.60;;
70927;SDS011;58587;53.034;18.576;2023-07-31T07:51:04;4.87;;;1.80;;
70927;SDS011;58587;53.034;18.576;2023-07-31T07:53:30;2.53;;;1.20;;
70927;SDS011;58587;53.034;18.576;2023-07-31T07:55:55;2.40;;;1.38;;
70927;SDS011;58587;53.034;18.576;2023-07-31T07:58:21;3.63;;;1.23;;
70927;SDS011;58587;53.034;18.576;2023-07-31T08:00:52;5.03;;;1.73;;
70927;SDS011;58587;53.034;18.576;2023-07-31T08:03:18;2.70;;;1.15;;
70927;SDS011;58587;53.034;18.576;2023-07-31T08:05:44;3.17;;;1.20;;
70927;SDS011;58587;53.034;18.576;2023-07-31T08:08:14;2.92;;;1.17;;
70927;SDS011;58587;53.034;18.576;2023-07-31T08:10:42;3.22;;;1.58;;
70927;SDS011;58587;53.034;18.576;2023-07-31T08:13:09;2.43;;;1.23;;
70927;SDS011;58587;53.034;18.576;2023-07-31T08:15:36;4.18;;;1.33;;
70927;SDS011;58587;53.034;18.576;2023-07-31T08:18:01;3.23;;;1.00;;
70927;SDS011;58587;53.034;18.576;2023-07-31T08:20:26;3.77;;;1.10;;
70927;SDS011;58587;53.034;18.576;2023-07-31T08:22:52;3.13;;;1.07;;
70927;SDS011;58587;53.034;18.576;2023-07-31T08:25:18;1.97;;;1.10;;
70927;SDS011;58587;53.034;18.576;2023-07-31T08:27:43;6.65;;;1.65;;
70927;SDS011;58587;53.034;18.576;2023-07-31T08:30:09;3.43;;;0.90;;
70927;SDS011;58587;53.034;18.576;2023-07-31T08:32:35;9.60;;;1.65;;
70927;SDS011;58587;53.034;18.576;2023-07-31T08:35:01;3.77;;;1.30;;
70927;SDS011;58587;53.034;18.576;2023-07-31T08:37:26;2.03;;;0.80;;
70927;SDS011;58587;53.034;18.576;2023-07-31T08:39:51;4.97;;;1.00;;
70927;SDS011;58587;53.034;18.576;2023-07-31T08:42:17;2.33;;;0.90;;
70927;SDS011;58587;53.034;18.576;2023-07-31T08:44:42;5.68;;;1.00;;
70927;SDS011;58587;53.034;18.576;2023-07-31T08:47:08;3.70;;;1.33;;
70927;SDS011;58587;53.034;18.576;2023-07-31T08:49:34;3.22;;;1.10;;
70927;SDS011;58587;53.034;18.576;2023-07-31T08:52:01;4.38;;;1.15;;
70927;SDS011;58587;53.034;18.576;2023-07-31T08:54:26;3.43;;;0.83;;
70927;SDS011;58587;53.034;18.576;2023-07-31T08:56:55;5.10;;;1.10;;
70927;SDS011;58587;53.034;18.576;2023-07-31T08:59:22;3.33;;;0.98;;
70927;SDS011;58587;53.034;18.576;2023-07-31T09:01:49;4.28;;;1.05;;
70927;SDS011;58587;53.034;18.576;2023-07-31T09:04:16;6.47;;;1.00;;
70927;SDS011;58587;53.034;18.576;2023-07-31T09:06:44;5.38;;;0.95;;
70927;SDS011;58587;53.034;18.576;2023-07-31T09:09:10;4.72;;;1.10;;
70927;SDS011;58587;53.034;18.576;2023-07-31T09:11:36;3.00;;;1.08;;
70927;SDS011;58587;53.034;18.576;2023-07-31T09:14:02;2.73;;;0.90;;
70927;SDS011;58587;53.034;18.576;2023-07-31T09:16:33;3.17;;;1.10;;
70927;SDS011;58587;53.034;18.576;2023-07-31T09:18:59;4.53;;;1.23;;
70927;SDS011;58587;53.034;18.576;2023-07-31T09:21:27;4.35;;;1.08;;
70927;SDS011;58587;53.034;18.576;2023-07-31T09:23:53;2.25;;;0.95;;
70927;SDS011;58587;53.034;18.576;2023-07-31T09:28:57;4.80;;;1.25;;
70927;SDS011;58587;53.034;18.576;2023-07-31T09:31:33;5.03;;;1.73;;
70927;SDS011;58587;53.034;18.576;2023-07-31T09:34:06;13.98;;;3.90;;
70927;SDS011;58587;53.034;18.576;2023-07-31T09:36:31;10.93;;;3.57;;
70927;SDS011;58587;53.034;18.576;2023-07-31T09:39:03;12.20;;;3.67;;
70927;SDS011;58587;53.034;18.576;2023-07-31T09:41:31;17.60;;;4.40;;
70927;SDS011;58587;53.034;18.576;2023-07-31T09:43:56;5.45;;;1.70;;
70927;SDS011;58587;53.034;18.576;2023-07-31T09:46:21;5.47;;;2.07;;
70927;SDS011;58587;53.034;18.576;2023-07-31T09:48:47;13.90;;;3.33;;
70927;SDS011;58587;53.034;18.576;2023-07-31T09:51:12;6.10;;;1.67;;
70927;SDS011;58587;53.034;18.576;2023-07-31T09:53:38;7.32;;;2.33;;
70927;SDS011;58587;53.034;18.576;2023-07-31T09:56:03;6.20;;;1.70;;
70927;SDS011;58587;53.034;18.576;2023-07-31T09:58:30;5.07;;;2.27;;
70927;SDS011;58587;53.034;18.576;2023-07-31T10:00:59;4.50;;;1.80;;
70927;SDS011;58587;53.034;18.576;2023-07-31T10:03:26;5.18;;;1.85;;
70927;SDS011;58587;53.034;18.576;2023-07-31T10:05:55;3.28;;;1.50;;
70927;SDS011;58587;53.034;18.576;2023-07-31T10:08:23;5.30;;;1.70;;
70927;SDS011;58587;53.034;18.576;2023-07-31T10:10:54;8.30;;;2.20;;
70927;SDS011;58587;53.034;18.576;2023-07-31T10:13:23;5.65;;;1.70;;
70927;SDS011;58587;53.034;18.576;2023-07-31T10:15:49;5.35;;;1.75;;
70927;SDS011;58587;53.034;18.576;2023-07-31T10:18:15;5.60;;;1.40;;
70927;SDS011;58587;53.034;18.576;2023-07-31T10:20:42;4.35;;;1.60;;
70927;SDS011;58587;53.034;18.576;2023-07-31T10:23:08;6.05;;;1.98;;
70927;SDS011;58587;53.034;18.576;2023-07-31T10:25:34;5.35;;;1.52;;
70927;SDS011;58587;53.034;18.576;2023-07-31T10:28:00;3.53;;;1.80;;
70927;SDS011;58587;53.034;18.576;2023-07-31T10:30:26;4.03;;;1.70;;
70927;SDS011;58587;53.034;18.576;2023-07-31T10:32:54;5.57;;;1.90;;
70927;SDS011;58587;53.034;18.576;2023-07-31T10:35:20;7.82;;;1.80;;
70927;SDS011;58587;53.034;18.576;2023-07-31T10:37:47;8.30;;;2.00;;
70927;SDS011;58587;53.034;18.576;2023-07-31T10:40:16;8.07;;;1.67;;
70927;SDS011;58587;53.034;18.576;2023-07-31T10:42:47;4.80;;;1.80;;
70927;SDS011;58587;53.034;18.576;2023-07-31T10:45:51;5.63;;;1.70;;
70927;SDS011;58587;53.034;18.576;2023-07-31T10:48:16;6.57;;;2.22;;
70927;SDS011;58587;53.034;18.576;2023-07-31T10:50:51;6.18;;;2.63;;
70927;SDS011;58587;53.034;18.576;2023-07-31T10:53:23;6.63;;;2.80;;
70927;SDS011;58587;53.034;18.576;2023-07-31T10:55:49;7.67;;;2.57;;
70927;SDS011;58587;53.034;18.576;2023-07-31T10:58:17;4.85;;;2.65;;
70927;SDS011;58587;53.034;18.576;2023-07-31T11:00:44;5.07;;;2.97;;
70927;SDS011;58587;53.034;18.576;2023-07-31T11:03:13;7.18;;;3.00;;
70927;SDS011;58587;53.034;18.576;2023-07-31T11:05:41;9.57;;;2.95;;
70927;SDS011;58587;53.034;18.576;2023-07-31T11:08:24;5.63;;;2.70;;
70927;SDS011;58587;53.034;18.576;2023-07-31T11:13:30;5.53;;;2.33;;
70927;SDS011;58587;53.034;18.576;2023-07-31T11:15:57;4.72;;;2.38;;
70927;SDS011;58587;53.034;18.576;2023-07-31T11:18:24;3.78;;;2.55;;
70927;SDS011;58587;53.034;18.576;2023-07-31T11:20:51;8.87;;;2.97;;
70927;SDS011;58587;53.034;18.576;2023-07-31T11:23:17;3.85;;;2.17;;
70927;SDS011;58587;53.034;18.576;2023-07-31T11:25:44;5.70;;;2.58;;
70927;SDS011;58587;53.034;18.576;2023-07-31T11:28:11;7.60;;;2.50;;
70927;SDS011;58587;53.034;18.576;2023-07-31T11:30:37;3.65;;;2.35;;
70927;SDS011;58587;53.034;18.576;2023-07-31T11:33:05;9.60;;;2.97;;
70927;SDS011;58587;53.034;18.576;2023-07-31T11:35:35;7.72;;;2.75;;
70927;SDS011;58587;53.034;18.576;2023-07-31T11:38:06;7.28;;;2.50;;
70927;SDS011;58587;53.034;18.576;2023-07-31T11:40:40;5.10;;;2.33;;
70927;SDS011;58587;53.034;18.576;2023-07-31T11:43:07;5.55;;;2.72;;
70927;SDS011;58587;53.034;18.576;2023-07-31T11:45:32;5.83;;;2.60;;
70927;SDS011;58587;53.034;18.576;2023-07-31T11:48:00;6.30;;;2.28;;
70927;SDS011;58587;53.034;18.576;2023-07-31T11:50:26;7.27;;;2.60;;
70927;SDS011;58587;53.034;18.576;2023-07-31T11:52:56;5.35;;;1.60;;
70927;SDS011;58587;53.034;18.576;2023-07-31T11:55:24;5.65;;;1.63;;
70927;SDS011;58587;53.034;18.576;2023-07-31T11:57:51;6.33;;;1.60;;
70927;SDS011;58587;53.034;18.576;2023-07-31T12:00:18;5.57;;;1.40;;
70927;SDS011;58587;53.034;18.576;2023-07-31T12:02:43;4.03;;;1.50;;
70927;SDS011;58587;53.034;18.576;2023-07-31T12:05:12;4.50;;;1.67;;
70927;SDS011;58587;53.034;18.576;2023-07-31T12:07:54;5.18;;;2.10;;
70927;SDS011;58587;53.034;18.576;2023-07-31T12:10:31;3.50;;;1.70;;
70927;SDS011;58587;53.034;18.576;2023-07-31T12:15:31;5.13;;;1.45;;
70927;SDS011;58587;53.034;18.576;2023-07-31T12:18:08;6.00;;;2.20;;
70927;SDS011;58587;53.034;18.576;2023-07-31T12:20:35;4.30;;;1.50;;
70927;SDS011;58587;53.034;18.576;2023-07-31T12:23:04;3.53;;;1.67;;
70927;SDS011;58587;53.034;18.576;2023-07-31T12:25:30;3.33;;;1.40;;
70927;SDS011;58587;53.034;18.576;2023-07-31T12:27:57;3.42;;;1.80;;
70927;SDS011;58587;53.034;18.576;2023-07-31T12:30:26;3.33;;;1.52;;
70927;SDS011;58587;53.034;18.576;2023-07-31T12:32:52;4.53;;;1.30;;
70927;SDS011;58587;53.034;18.576;2023-07-31T12:35:18;2.17;;;1.13;;
70927;SDS011;58587;53.034;18.576;2023-07-31T12:37:43;3.00;;;1.50;;
70927;SDS011;58587;53.034;18.576;2023-07-31T12:40:09;2.83;;;1.60;;
70927;SDS011;58587;53.034;18.576;2023-07-31T12:42:34;4.07;;;1.60;;
70927;SDS011;58587;53.034;18.576;2023-07-31T12:45:00;3.37;;;1.30;;
70927;SDS011;58587;53.034;18.576;2023-07-31T12:47:25;2.97;;;1.60;;
70927;SDS011;58587;53.034;18.576;2023-07-31T12:49:50;3.67;;;1.80;;
70927;SDS011;58587;53.034;18.576;2023-07-31T12:52:16;5.10;;;1.60;;
70927;SDS011;58587;53.034;18.576;2023-07-31T12:54:41;3.83;;;1.80;;
70927;SDS011;58587;53.034;18.576;2023-07-31T12:57:06;3.30;;;1.60;;
70927;SDS011;58587;53.034;18.576;2023-07-31T12:59:32;3.53;;;1.77;;
70927;SDS011;58587;53.034;18.576;2023-07-31T13:01:57;2.92;;;1.42;;
70927;SDS011;58587;53.034;18.576;2023-07-31T13:04:22;4.20;;;1.60;;
70927;SDS011;58587;53.034;18.576;2023-07-31T13:06:47;2.33;;;1.17;;
70927;SDS011;58587;53.034;18.576;2023-07-31T13:09:13;2.40;;;1.10;;
70927;SDS011;58587;53.034;18.576;2023-07-31T13:11:38;1.87;;;1.30;;
70927;SDS011;58587;53.034;18.576;2023-07-31T13:14:04;3.03;;;1.47;;
70927;SDS011;58587;53.034;18.576;2023-07-31T13:16:29;3.93;;;1.50;;
70927;SDS011;58587;53.034;18.576;2023-07-31T13:18:54;1.63;;;1.05;;
70927;SDS011;58587;53.034;18.576;2023-07-31T13:21:20;2.57;;;1.30;;
70927;SDS011;58587;53.034;18.576;2023-07-31T13:23:47;2.40;;;1.30;;
70927;SDS011;58587;53.034;18.576;2023-07-31T13:26:12;3.88;;;1.25;;
70927;SDS011;58587;53.034;18.576;2023-07-31T13:28:37;2.83;;;1.63;;
70927;SDS011;58587;53.034;18.576;2023-07-31T13:31:03;3.33;;;1.40;;
70927;SDS011;58587;53.034;18.576;2023-07-31T13:33:28;3.63;;;1.80;;
70927;SDS011;58587;53.034;18.576;2023-07-31T13:35:53;3.53;;;1.60;;
70927;SDS011;58587;53.034;18.576;2023-07-31T13:38:18;2.77;;;1.60;;
70927;SDS011;58587;53.034;18.576;2023-07-31T13:40:44;2.97;;;1.40;;
70927;SDS011;58587;53.034;18.576;2023-07-31T13:43:09;3.27;;;1.10;;
70927;SDS011;58587;53.034;18.576;2023-07-31T13:45:34;2.37;;;1.30;;
70927;SDS011;58587;53.034;18.576;2023-07-31T13:48:00;3.67;;;1.33;;
70927;SDS011;58587;53.034;18.576;2023-07-31T13:50:26;2.30;;;1.40;;
70927;SDS011;58587;53.034;18.576;2023-07-31T13:52:52;1.30;;;1.20;;
70927;SDS011;58587;53.034;18.576;2023-07-31T13:55:17;2.97;;;1.60;;
70927;SDS011;58587;53.034;18.576;2023-07-31T13:57:42;2.80;;;1.20;;
70927;SDS011;58587;53.034;18.576;2023-07-31T14:00:08;2.83;;;1.30;;
70927;SDS011;58587;53.034;18.576;2023-07-31T14:02:34;2.22;;;1.20;;
70927;SDS011;58587;53.034;18.576;2023-07-31T14:05:00;2.75;;;1.50;;
70927;SDS011;58587;53.034;18.576;2023-07-31T14:07:26;2.90;;;1.50;;
70927;SDS011;58587;53.034;18.576;2023-07-31T14:09:51;4.40;;;1.35;;
70927;SDS011;58587;53.034;18.576;2023-07-31T14:12:16;2.70;;;2.10;;
70927;SDS011;58587;53.034;18.576;2023-07-31T14:14:42;5.63;;;2.40;;
70927;SDS011;58587;53.034;18.576;2023-07-31T14:17:07;3.27;;;1.30;;
70927;SDS011;58587;53.034;18.576;2023-07-31T14:19:32;3.03;;;1.17;;
70927;SDS011;58587;53.034;18.576;2023-07-31T14:21:58;1.90;;;1.50;;
70927;SDS011;58587;53.034;18.576;2023-07-31T14:24:24;2.50;;;1.30;;
70927;SDS011;58587;53.034;18.576;2023-07-31T14:26:50;6.90;;;2.00;;
70927;SDS011;58587;53.034;18.576;2023-07-31T14:29:15;2.20;;;1.30;;
70927;SDS011;58587;53.034;18.576;2023-07-31T14:31:40;2.60;;;1.30;;
70927;SDS011;58587;53.034;18.576;2023-07-31T14:34:05;2.03;;;1.23;;
70927;SDS011;58587;53.034;18.576;2023-07-31T14:36:31;1.50;;;0.90;;
70927;SDS011;58587;53.034;18.576;2023-07-31T14:38:56;2.67;;;1.17;;
70927;SDS011;58587;53.034;18.576;2023-07-31T14:41:21;3.43;;;1.20;;
70927;SDS011;58587;53.034;18.576;2023-07-31T14:43:47;2.13;;;1.20;;
70927;SDS011;58587;53.034;18.576;2023-07-31T14:46:12;1.83;;;1.00;;